Archer, IA

7:42 AM CST on December 13, 2019 (GMT -0600)
Pirate P's Play House (East Sheldon) | | Change Station
Active Advisory: Special Statement

Elev 1430 ft 43.18 °N, 95.82 °W | Updated 13 seconds ago

Overcast
Overcast
14.9 °F
Feels Like 15 °F
N
3
Wind Variable Wind from ESE
Gusts 4.0 mph

Today
High -- | Low -- °F
--% Chance of Precip.
Yesterday
High -- | Low -- °F
Precip. -- in
Pressure 29.84 in
Visibility 6.0 miles
Clouds Mostly Cloudy 500 ft
Mostly Cloudy 4300 ft
Overcast 7500 ft
Windchill 15 °F
Dew Point 15 °F
Humidity 99%
Rainfall 0.00 in
Snow Depth Not available.
7:46 AM 4:48 PM
Full, 98% visible
METAR KSHL 131335Z AUTO 15009KT 6SM BR BKN005 BKN043 OVC075 M09/M09 A2984 RMK AO2
Pressure 29.84 in
Visibility 6.0 miles
Clouds Mostly Cloudy 500 ft
Mostly Cloudy 4300 ft
Overcast 7500 ft
Windchill 15 °F
Dew Point 15 °F
Humidity 99%
Rainfall 0.00 in
Snow Depth Not available.
7:46 AM 4:48 PM
Full, 98% visible
METAR KSHL 131335Z AUTO 15009KT 6SM BR BKN005 BKN043 OVC075 M09/M09 A2984 RMK AO2

Get Your Daily Forecast Email!

Thanks for signing up!

Be on the lookout for a verification email in your inbox.

You'll start receiving severe weather alerts in your inbox..

×

10-Day Weather Forecast

Almanac

Astronomy

Dec. 13, 2019 Rise Set
Actual Time
Civil Twilight
Nautical Twilight
Astronomical Twilight
Moon
Length of Visible Light
Length of Day
Tomorrow will be .
, % of the Moon is Illuminated

Today's Extremes

State Highs State Lows

Community

WunderPhotos

Category 6

Welcome to Category 6. This is the collective home for Weather Underground's featured writeups by Dr. Jeff Masters (right), Bob Henson (left), Chris Burt, and other regular contributors.

Nearby

Air Quality

  Air Quality AQ Index Pollutant
Not available.

Snow Depth

Station Depth Elevation

Earthquake Activity

City Distance Mag. Time & Date
Minimum magnitude displayed is 2.5.

Coastal Water Temperatures

Place Temperature

Stations

Nearby Weather Stations

Station Location Temp. Windchill Dew Point Humidity Wind Precip. Elev Updated Type
                   

Watches & Warnings

Special Statement
Issued: 5:39 AM CST Dec. 13, 2019 – National Weather Service

A light wintry mix will be possible through 9 am along and east of
Highway 60. Untreated surfaces may become slippery with the sub
freezing temperatures. Patchy fog is also likely through the
morning hours. Motorists are urged to drive with caution, and
allow extra time in reaching their destination.



539 am CST Fri Dec 13 2019

A light wintry mix will be possible through 9 am along and east of
Highway 60. Untreated surfaces may become slippery with the sub
freezing temperatures. Patchy fog is also likely through the
morning hours. Motorists are urged to drive with caution, and
allow extra time in reaching their destination.